sensor_id;sensor_type;location;lat;lon;timestamp;P1;durP1;ratioP1;P2;durP2;ratioP2
8592;SDS011;4334;49.982;8.398;2022-07-10T00:00:05;5.03;;;2.50;;
8592;SDS011;4334;49.982;8.398;2022-07-10T00:02:33;4.53;;;2.50;;
8592;SDS011;4334;49.982;8.398;2022-07-10T00:05:00;3.80;;;2.40;;
8592;SDS011;4334;49.982;8.398;2022-07-10T00:07:27;4.60;;;2.53;;
8592;SDS011;4334;49.982;8.398;2022-07-10T00:09:53;4.00;;;2.20;;
8592;SDS011;4334;49.982;8.398;2022-07-10T00:12:21;2.97;;;2.50;;
8592;SDS011;4334;49.982;8.398;2022-07-10T00:14:48;3.30;;;2.20;;
8592;SDS011;4334;49.982;8.398;2022-07-10T00:17:15;4.20;;;2.27;;
8592;SDS011;4334;49.982;8.398;2022-07-10T00:19:42;3.40;;;2.20;;
8592;SDS011;4334;49.982;8.398;2022-07-10T00:22:09;3.33;;;2.40;;
8592;SDS011;4334;49.982;8.398;2022-07-10T00:24:36;3.07;;;2.10;;
8592;SDS011;4334;49.982;8.398;2022-07-10T00:27:03;7.73;;;2.20;;
8592;SDS011;4334;49.982;8.398;2022-07-10T00:29:31;3.33;;;2.20;;
8592;SDS011;4334;49.982;8.398;2022-07-10T00:31:58;4.43;;;2.10;;
8592;SDS011;4334;49.982;8.398;2022-07-10T00:34:25;4.80;;;2.20;;
8592;SDS011;4334;49.982;8.398;2022-07-10T00:36:52;4.67;;;2.27;;
8592;SDS011;4334;49.982;8.398;2022-07-10T00:39:18;3.30;;;1.97;;
8592;SDS011;4334;49.982;8.398;2022-07-10T00:41:45;3.97;;;2.27;;
8592;SDS011;4334;49.982;8.398;2022-07-10T00:44:12;5.63;;;2.03;;
8592;SDS011;4334;49.982;8.398;2022-07-10T00:46:40;3.13;;;2.20;;
8592;SDS011;4334;49.982;8.398;2022-07-10T00:49:06;5.73;;;2.23;;
8592;SDS011;4334;49.982;8.398;2022-07-10T00:51:33;5.27;;;2.30;;
8592;SDS011;4334;49.982;8.398;2022-07-10T00:54:00;3.87;;;2.03;;
8592;SDS011;4334;49.982;8.398;2022-07-10T00:56:27;3.93;;;2.20;;
8592;SDS011;4334;49.982;8.398;2022-07-10T00:58:54;3.87;;;2.40;;
8592;SDS011;4334;49.982;8.398;2022-07-10T01:01:21;4.87;;;2.40;;
8592;SDS011;4334;49.982;8.398;2022-07-10T01:03:50;2.90;;;2.13;;
8592;SDS011;4334;49.982;8.398;2022-07-10T01:06:17;4.70;;;2.20;;
8592;SDS011;4334;49.982;8.398;2022-07-10T01:08:44;5.57;;;1.90;;
8592;SDS011;4334;49.982;8.398;2022-07-10T01:11:12;3.53;;;1.77;;
8592;SDS011;4334;49.982;8.398;2022-07-10T01:13:40;5.03;;;2.13;;
8592;SDS011;4334;49.982;8.398;2022-07-10T01:16:08;5.20;;;2.27;;
8592;SDS011;4334;49.982;8.398;2022-07-10T01:18:34;2.80;;;2.23;;
8592;SDS011;4334;49.982;8.398;2022-07-10T01:21:03;3.93;;;2.07;;
8592;SDS011;4334;49.982;8.398;2022-07-10T01:23:29;6.80;;;2.20;;
8592;SDS011;4334;49.982;8.398;2022-07-10T01:25:57;3.73;;;2.20;;
8592;SDS011;4334;49.982;8.398;2022-07-10T01:28:24;4.80;;;2.30;;
8592;SDS011;4334;49.982;8.398;2022-07-10T01:30:54;4.90;;;2.20;;
8592;SDS011;4334;49.982;8.398;2022-07-10T01:33:21;4.10;;;2.03;;
8592;SDS011;4334;49.982;8.398;2022-07-10T01:35:47;4.13;;;2.20;;
8592;SDS011;4334;49.982;8.398;2022-07-10T01:38:15;5.57;;;2.20;;
8592;SDS011;4334;49.982;8.398;2022-07-10T01:40:42;5.50;;;2.00;;
8592;SDS011;4334;49.982;8.398;2022-07-10T01:43:09;6.47;;;1.90;;
8592;SDS011;4334;49.982;8.398;2022-07-10T01:45:35;3.60;;;2.20;;
8592;SDS011;4334;49.982;8.398;2022-07-10T01:48:03;3.37;;;2.00;;
8592;SDS011;4334;49.982;8.398;2022-07-10T01:50:30;6.87;;;2.10;;
8592;SDS011;4334;49.982;8.398;2022-07-10T01:52:56;4.73;;;2.10;;
8592;SDS011;4334;49.982;8.398;2022-07-10T01:55:25;3.90;;;1.87;;
8592;SDS011;4334;49.982;8.398;2022-07-10T01:57:51;3.80;;;1.90;;
8592;SDS011;4334;49.982;8.398;2022-07-10T02:00:18;3.30;;;1.87;;
8592;SDS011;4334;49.982;8.398;2022-07-10T02:02:45;5.00;;;2.27;;
8592;SDS011;4334;49.982;8.398;2022-07-10T02:05:32;2.30;;;1.87;;
8592;SDS011;4334;49.982;8.398;2022-07-10T02:07:58;5.20;;;2.23;;
8592;SDS011;4334;49.982;8.398;2022-07-10T02:10:26;3.23;;;2.10;;
8592;SDS011;4334;49.982;8.398;2022-07-10T02:12:53;7.77;;;2.40;;
8592;SDS011;4334;49.982;8.398;2022-07-10T02:15:21;4.60;;;2.20;;
8592;SDS011;4334;49.982;8.398;2022-07-10T02:17:47;5.27;;;2.00;;
8592;SDS011;4334;49.982;8.398;2022-07-10T02:20:14;4.50;;;2.20;;
8592;SDS011;4334;49.982;8.398;2022-07-10T02:22:41;6.07;;;1.93;;
8592;SDS011;4334;49.982;8.398;2022-07-10T02:25:08;2.97;;;1.80;;
8592;SDS011;4334;49.982;8.398;2022-07-10T02:27:37;3.53;;;1.90;;
8592;SDS011;4334;49.982;8.398;2022-07-10T02:30:04;7.40;;;2.00;;
8592;SDS011;4334;49.982;8.398;2022-07-10T02:32:32;2.33;;;1.70;;
8592;SDS011;4334;49.982;8.398;2022-07-10T02:34:58;3.03;;;1.73;;
8592;SDS011;4334;49.982;8.398;2022-07-10T02:37:25;8.37;;;1.90;;
8592;SDS011;4334;49.982;8.398;2022-07-10T02:39:52;4.17;;;1.93;;
8592;SDS011;4334;49.982;8.398;2022-07-10T02:42:19;4.43;;;2.30;;
8592;SDS011;4334;49.982;8.398;2022-07-10T02:44:47;4.93;;;1.93;;
8592;SDS011;4334;49.982;8.398;2022-07-10T02:47:14;3.80;;;2.10;;
8592;SDS011;4334;49.982;8.398;2022-07-10T02:49:40;3.07;;;1.93;;
8592;SDS011;4334;49.982;8.398;2022-07-10T02:52:08;3.50;;;1.87;;
8592;SDS011;4334;49.982;8.398;2022-07-10T02:54:35;2.37;;;1.80;;
8592;SDS011;4334;49.982;8.398;2022-07-10T02:57:02;6.83;;;2.03;;
8592;SDS011;4334;49.982;8.398;2022-07-10T02:59:30;3.77;;;1.97;;
8592;SDS011;4334;49.982;8.398;2022-07-10T03:01:58;3.30;;;2.03;;
8592;SDS011;4334;49.982;8.398;2022-07-10T03:04:25;4.10;;;2.30;;
8592;SDS011;4334;49.982;8.398;2022-07-10T03:06:52;3.20;;;1.90;;
8592;SDS011;4334;49.982;8.398;2022-07-10T03:09:19;5.50;;;1.93;;
8592;SDS011;4334;49.982;8.398;2022-07-10T03:11:46;2.63;;;1.87;;
8592;SDS011;4334;49.982;8.398;2022-07-10T03:14:13;2.93;;;2.00;;
8592;SDS011;4334;49.982;8.398;2022-07-10T03:16:40;3.30;;;1.93;;
8592;SDS011;4334;49.982;8.398;2022-07-10T03:19:08;3.53;;;2.00;;
8592;SDS011;4334;49.982;8.398;2022-07-10T03:21:35;5.07;;;2.10;;
8592;SDS011;4334;49.982;8.398;2022-07-10T03:24:02;2.93;;;2.40;;
8592;SDS011;4334;49.982;8.398;2022-07-10T03:26:29;8.50;;;2.27;;
8592;SDS011;4334;49.982;8.398;2022-07-10T03:28:56;3.63;;;2.33;;
8592;SDS011;4334;49.982;8.398;2022-07-10T03:31:22;2.40;;;2.10;;
8592;SDS011;4334;49.982;8.398;2022-07-10T03:33:49;3.27;;;2.10;;
8592;SDS011;4334;49.982;8.398;2022-07-10T03:36:19;6.17;;;2.60;;
8592;SDS011;4334;49.982;8.398;2022-07-10T03:38:45;7.50;;;2.60;;
8592;SDS011;4334;49.982;8.398;2022-07-10T03:41:13;4.57;;;2.07;;
8592;SDS011;4334;49.982;8.398;2022-07-10T03:43:39;4.23;;;2.17;;
8592;SDS011;4334;49.982;8.398;2022-07-10T03:46:06;6.43;;;1.93;;
8592;SDS011;4334;49.982;8.398;2022-07-10T03:48:33;4.57;;;2.00;;
8592;SDS011;4334;49.982;8.398;2022-07-10T03:51:00;3.97;;;1.90;;
8592;SDS011;4334;49.982;8.398;2022-07-10T03:53:29;11.30;;;1.87;;
8592;SDS011;4334;49.982;8.398;2022-07-10T03:55:56;3.17;;;1.70;;
8592;SDS011;4334;49.982;8.398;2022-07-10T03:58:23;2.40;;;1.90;;
8592;SDS011;4334;49.982;8.398;2022-07-10T04:00:49;5.73;;;2.07;;
8592;SDS011;4334;49.982;8.398;2022-07-10T04:03:16;5.07;;;1.93;;
8592;SDS011;4334;49.982;8.398;2022-07-10T04:05:43;2.63;;;1.73;;
8592;SDS011;4334;49.982;8.398;2022-07-10T04:08:10;2.07;;;1.70;;
8592;SDS011;4334;49.982;8.398;2022-07-10T04:10:38;2.33;;;1.40;;
8592;SDS011;4334;49.982;8.398;2022-07-10T04:13:05;4.50;;;1.60;;
8592;SDS011;4334;49.982;8.398;2022-07-10T04:15:31;3.93;;;1.60;;
8592;SDS011;4334;49.982;8.398;2022-07-10T04:17:58;1.73;;;1.40;;
8592;SDS011;4334;49.982;8.398;2022-07-10T04:20:25;2.73;;;1.43;;
8592;SDS011;4334;49.982;8.398;2022-07-10T04:22:52;1.97;;;1.37;;
8592;SDS011;4334;49.982;8.398;2022-07-10T04:25:19;3.03;;;1.60;;
8592;SDS011;4334;49.982;8.398;2022-07-10T04:27:47;3.27;;;1.70;;
8592;SDS011;4334;49.982;8.398;2022-07-10T04:30:14;3.60;;;1.20;;
8592;SDS011;4334;49.982;8.398;2022-07-10T04:32:41;4.87;;;1.40;;
8592;SDS011;4334;49.982;8.398;2022-07-10T04:35:08;4.03;;;1.70;;
8592;SDS011;4334;49.982;8.398;2022-07-10T04:37:35;3.30;;;1.50;;
8592;SDS011;4334;49.982;8.398;2022-07-10T04:40:03;4.30;;;1.60;;
8592;SDS011;4334;49.982;8.398;2022-07-10T04:42:30;4.10;;;1.40;;
8592;SDS011;4334;49.982;8.398;2022-07-10T04:44:58;3.67;;;1.47;;
8592;SDS011;4334;49.982;8.398;2022-07-10T04:47:24;3.77;;;1.63;;
8592;SDS011;4334;49.982;8.398;2022-07-10T04:49:52;3.80;;;1.40;;
8592;SDS011;4334;49.982;8.398;2022-07-10T04:52:18;6.40;;;1.33;;
8592;SDS011;4334;49.982;8.398;2022-07-10T04:54:45;2.13;;;1.50;;
8592;SDS011;4334;49.982;8.398;2022-07-10T04:57:12;3.60;;;1.33;;
8592;SDS011;4334;49.982;8.398;2022-07-10T04:59:38;2.57;;;1.20;;
8592;SDS011;4334;49.982;8.398;2022-07-10T05:02:07;5.80;;;1.50;;
8592;SDS011;4334;49.982;8.398;2022-07-10T05:04:33;3.53;;;1.67;;
8592;SDS011;4334;49.982;8.398;2022-07-10T05:07:00;3.93;;;1.70;;
8592;SDS011;4334;49.982;8.398;2022-07-10T05:09:27;1.20;;;1.10;;
8592;SDS011;4334;49.982;8.398;2022-07-10T05:11:53;2.03;;;1.20;;
8592;SDS011;4334;49.982;8.398;2022-07-10T05:14:20;2.60;;;1.13;;
8592;SDS011;4334;49.982;8.398;2022-07-10T05:16:47;3.47;;;1.37;;
8592;SDS011;4334;49.982;8.398;2022-07-10T05:19:15;5.37;;;1.40;;
8592;SDS011;4334;49.982;8.398;2022-07-10T05:21:42;2.83;;;1.10;;
8592;SDS011;4334;49.982;8.398;2022-07-10T05:24:09;4.30;;;1.20;;
8592;SDS011;4334;49.982;8.398;2022-07-10T05:26:36;3.03;;;1.30;;
8592;SDS011;4334;49.982;8.398;2022-07-10T05:29:02;3.10;;;1.57;;
8592;SDS011;4334;49.982;8.398;2022-07-10T05:31:29;2.90;;;1.23;;
8592;SDS011;4334;49.982;8.398;2022-07-10T05:33:56;4.22;;;1.55;;
8592;SDS011;4334;49.982;8.398;2022-07-10T05:36:24;2.67;;;1.40;;
8592;SDS011;4334;49.982;8.398;2022-07-10T05:38:50;4.22;;;1.38;;
8592;SDS011;4334;49.982;8.398;2022-07-10T05:41:17;3.42;;;1.20;;
8592;SDS011;4334;49.982;8.398;2022-07-10T05:43:44;2.65;;;1.17;;
8592;SDS011;4334;49.982;8.398;2022-07-10T05:46:10;2.42;;;1.30;;
8592;SDS011;4334;49.982;8.398;2022-07-10T05:48:37;2.07;;;1.10;;
8592;SDS011;4334;49.982;8.398;2022-07-10T05:51:04;2.53;;;1.20;;
8592;SDS011;4334;49.982;8.398;2022-07-10T05:53:32;4.00;;;1.40;;
8592;SDS011;4334;49.982;8.398;2022-07-10T05:55:59;2.93;;;1.10;;
8592;SDS011;4334;49.982;8.398;2022-07-10T05:58:27;2.43;;;1.43;;
8592;SDS011;4334;49.982;8.398;2022-07-10T06:00:54;5.03;;;1.40;;
8592;SDS011;4334;49.982;8.398;2022-07-10T06:03:21;3.27;;;1.40;;
8592;SDS011;4334;49.982;8.398;2022-07-10T06:05:47;4.73;;;1.73;;
8592;SDS011;4334;49.982;8.398;2022-07-10T06:08:14;2.70;;;1.20;;
8592;SDS011;4334;49.982;8.398;2022-07-10T06:10:42;2.40;;;1.27;;
8592;SDS011;4334;49.982;8.398;2022-07-10T06:13:10;2.83;;;1.07;;
8592;SDS011;4334;49.982;8.398;2022-07-10T06:15:37;3.53;;;1.73;;
8592;SDS011;4334;49.982;8.398;2022-07-10T06:18:04;2.90;;;1.20;;
8592;SDS011;4334;49.982;8.398;2022-07-10T06:20:30;2.10;;;1.25;;
8592;SDS011;4334;49.982;8.398;2022-07-10T06:22:57;4.03;;;1.42;;
8592;SDS011;4334;49.982;8.398;2022-07-10T06:25:24;1.60;;;1.00;;
8592;SDS011;4334;49.982;8.398;2022-07-10T06:27:52;1.35;;;1.05;;
8592;SDS011;4334;49.982;8.398;2022-07-10T06:30:19;4.57;;;1.30;;
8592;SDS011;4334;49.982;8.398;2022-07-10T06:32:46;3.42;;;1.20;;
8592;SDS011;4334;49.982;8.398;2022-07-10T06:35:13;1.70;;;1.00;;
8592;SDS011;4334;49.982;8.398;2022-07-10T06:37:39;2.95;;;1.10;;
8592;SDS011;4334;49.982;8.398;2022-07-10T06:40:07;5.88;;;1.52;;
8592;SDS011;4334;49.982;8.398;2022-07-10T06:42:35;2.67;;;1.17;;
8592;SDS011;4334;49.982;8.398;2022-07-10T06:45:04;3.67;;;1.20;;
8592;SDS011;4334;49.982;8.398;2022-07-10T06:47:32;3.60;;;1.17;;
8592;SDS011;4334;49.982;8.398;2022-07-10T06:50:16;1.42;;;0.93;;
8592;SDS011;4334;49.982;8.398;2022-07-10T06:52:43;4.93;;;1.20;;
8592;SDS011;4334;49.982;8.398;2022-07-10T06:55:10;2.25;;;1.30;;
8592;SDS011;4334;49.982;8.398;2022-07-10T06:57:37;2.42;;;1.20;;
8592;SDS011;4334;49.982;8.398;2022-07-10T07:00:06;2.85;;;1.08;;
8592;SDS011;4334;49.982;8.398;2022-07-10T07:02:35;2.67;;;1.20;;
8592;SDS011;4334;49.982;8.398;2022-07-10T07:05:02;2.78;;;1.10;;
8592;SDS011;4334;49.982;8.398;2022-07-10T07:07:29;4.95;;;1.30;;
8592;SDS011;4334;49.982;8.398;2022-07-10T07:09:55;1.65;;;1.00;;
8592;SDS011;4334;49.982;8.398;2022-07-10T07:12:22;3.80;;;1.10;;
8592;SDS011;4334;49.982;8.398;2022-07-10T07:14:49;3.50;;;1.20;;
8592;SDS011;4334;49.982;8.398;2022-07-10T07:17:17;3.90;;;1.05;;
8592;SDS011;4334;49.982;8.398;2022-07-10T07:19:47;3.70;;;0.90;;
8592;SDS011;4334;49.982;8.398;2022-07-10T07:22:32;2.30;;;1.13;;
8592;SDS011;4334;49.982;8.398;2022-07-10T07:25:17;3.15;;;1.25;;
8592;SDS011;4334;49.982;8.398;2022-07-10T07:27:43;2.38;;;0.90;;
8592;SDS011;4334;49.982;8.398;2022-07-10T07:30:11;3.35;;;0.77;;
8592;SDS011;4334;49.982;8.398;2022-07-10T07:32:41;2.53;;;1.05;;
8592;SDS011;4334;49.982;8.398;2022-07-10T07:35:09;2.67;;;1.05;;
8592;SDS011;4334;49.982;8.398;2022-07-10T07:37:37;2.03;;;1.17;;
8592;SDS011;4334;49.982;8.398;2022-07-10T07:40:05;1.25;;;0.95;;
8592;SDS011;4334;49.982;8.398;2022-07-10T07:42:33;3.53;;;1.10;;
8592;SDS011;4334;49.982;8.398;2022-07-10T07:45:00;1.67;;;0.90;;
8592;SDS011;4334;49.982;8.398;2022-07-10T07:47:27;5.43;;;0.80;;
8592;SDS011;4334;49.982;8.398;2022-07-10T07:49:55;1.67;;;1.02;;
8592;SDS011;4334;49.982;8.398;2022-07-10T07:52:21;3.17;;;1.15;;
8592;SDS011;4334;49.982;8.398;2022-07-10T07:54:48;1.70;;;1.00;;
8592;SDS011;4334;49.982;8.398;2022-07-10T07:57:15;2.55;;;0.88;;
8592;SDS011;4334;49.982;8.398;2022-07-10T07:59:42;1.00;;;0.80;;
8592;SDS011;4334;49.982;8.398;2022-07-10T08:02:09;3.35;;;1.10;;
8592;SDS011;4334;49.982;8.398;2022-07-10T08:04:36;3.10;;;1.13;;
8592;SDS011;4334;49.982;8.398;2022-07-10T08:07:04;2.40;;;0.90;;
8592;SDS011;4334;49.982;8.398;2022-07-10T08:09:30;1.73;;;1.00;;
8592;SDS011;4334;49.982;8.398;2022-07-10T08:11:57;2.33;;;1.00;;
8592;SDS011;4334;49.982;8.398;2022-07-10T08:14:24;2.08;;;1.00;;
8592;SDS011;4334;49.982;8.398;2022-07-10T08:16:50;1.90;;;1.17;;
8592;SDS011;4334;49.982;8.398;2022-07-10T08:19:17;2.22;;;1.02;;
8592;SDS011;4334;49.982;8.398;2022-07-10T08:21:44;4.03;;;1.10;;
8592;SDS011;4334;49.982;8.398;2022-07-10T08:24:12;2.25;;;0.90;;
8592;SDS011;4334;49.982;8.398;2022-07-10T08:26:39;1.85;;;0.90;;
8592;SDS011;4334;49.982;8.398;2022-07-10T08:29:06;1.73;;;0.80;;
8592;SDS011;4334;49.982;8.398;2022-07-10T08:31:33;1.77;;;0.98;;
8592;SDS011;4334;49.982;8.398;2022-07-10T08:34:00;1.00;;;0.70;;
8592;SDS011;4334;49.982;8.398;2022-07-10T08:36:26;1.83;;;0.98;;
8592;SDS011;4334;49.982;8.398;2022-07-10T08:38:53;1.02;;;0.82;;
8592;SDS011;4334;49.982;8.398;2022-07-10T08:41:22;1.77;;;1.00;;
8592;SDS011;4334;49.982;8.398;2022-07-10T08:43:52;2.90;;;1.23;;
8592;SDS011;4334;49.982;8.398;2022-07-10T08:46:19;1.70;;;0.90;;
8592;SDS011;4334;49.982;8.398;2022-07-10T08:48:46;2.42;;;1.08;;
8592;SDS011;4334;49.982;8.398;2022-07-10T08:51:15;3.05;;;1.20;;
8592;SDS011;4334;49.982;8.398;2022-07-10T08:53:49;2.10;;;0.98;;
8592;SDS011;4334;49.982;8.398;2022-07-10T08:56:17;2.00;;;1.00;;
8592;SDS011;4334;49.982;8.398;2022-07-10T08:58:45;5.55;;;1.40;;
8592;SDS011;4334;49.982;8.398;2022-07-10T09:01:13;2.90;;;1.20;;
8592;SDS011;4334;49.982;8.398;2022-07-10T09:03:40;2.45;;;1.23;;
8592;SDS011;4334;49.982;8.398;2022-07-10T09:06:07;4.85;;;1.38;;
8592;SDS011;4334;49.982;8.398;2022-07-10T09:08:33;4.47;;;1.48;;
8592;SDS011;4334;49.982;8.398;2022-07-10T09:13:51;2.47;;;1.10;;
8592;SDS011;4334;49.982;8.398;2022-07-10T09:16:24;3.70;;;1.40;;
8592;SDS011;4334;49.982;8.398;2022-07-10T09:18:51;2.25;;;1.10;;
8592;SDS011;4334;49.982;8.398;2022-07-10T09:21:18;2.83;;;1.33;;
8592;SDS011;4334;49.982;8.398;2022-07-10T09:23:46;3.70;;;1.35;;
8592;SDS011;4334;49.982;8.398;2022-07-10T09:26:13;2.90;;;1.20;;
8592;SDS011;4334;49.982;8.398;2022-07-10T09:28:40;1.95;;;1.10;;
8592;SDS011;4334;49.982;8.398;2022-07-10T09:31:08;2.25;;;1.23;;
8592;SDS011;4334;49.982;8.398;2022-07-10T09:33:35;4.50;;;1.40;;
8592;SDS011;4334;49.982;8.398;2022-07-10T09:36:05;2.25;;;1.10;;
8592;SDS011;4334;49.982;8.398;2022-07-10T09:38:49;4.95;;;1.20;;
8592;SDS011;4334;49.982;8.398;2022-07-10T09:41:21;4.28;;;1.65;;
8592;SDS011;4334;49.982;8.398;2022-07-10T09:43:49;2.50;;;1.23;;
8592;SDS011;4334;49.982;8.398;2022-07-10T09:46:19;4.43;;;1.30;;
8592;SDS011;4334;49.982;8.398;2022-07-10T09:48:47;3.30;;;1.30;;
8592;SDS011;4334;49.982;8.398;2022-07-10T09:51:26;4.60;;;1.10;;
8592;SDS011;4334;49.982;8.398;2022-07-10T09:53:56;2.95;;;1.30;;
8592;SDS011;4334;49.982;8.398;2022-07-10T09:56:26;2.83;;;1.23;;
8592;SDS011;4334;49.982;8.398;2022-07-10T09:58:59;3.75;;;1.25;;
8592;SDS011;4334;49.982;8.398;2022-07-10T10:01:28;5.22;;;1.60;;
8592;SDS011;4334;49.982;8.398;2022-07-10T10:03:57;1.85;;;1.23;;
8592;SDS011;4334;49.982;8.398;2022-07-10T10:06:26;2.75;;;1.30;;
8592;SDS011;4334;49.982;8.398;2022-07-10T10:08:58;2.95;;;1.63;;
8592;SDS011;4334;49.982;8.398;2022-07-10T10:11:30;2.10;;;1.00;;
8592;SDS011;4334;49.982;8.398;2022-07-10T10:14:00;5.15;;;1.30;;
8592;SDS011;4334;49.982;8.398;2022-07-10T10:16:28;2.42;;;1.17;;
8592;SDS011;4334;49.982;8.398;2022-07-10T10:18:55;3.90;;;1.50;;
8592;SDS011;4334;49.982;8.398;2022-07-10T10:21:40;4.00;;;1.30;;
8592;SDS011;4334;49.982;8.398;2022-07-10T10:24:08;3.40;;;1.20;;
8592;SDS011;4334;49.982;8.398;2022-07-10T10:26:35;6.18;;;1.63;;
8592;SDS011;4334;49.982;8.398;2022-07-10T10:29:03;3.72;;;1.20;;
8592;SDS011;4334;49.982;8.398;2022-07-10T10:31:32;5.63;;;1.13;;
8592;SDS011;4334;49.982;8.398;2022-07-10T10:34:01;5.97;;;1.35;;
8592;SDS011;4334;49.982;8.398;2022-07-10T10:36:43;2.00;;;1.10;;
8592;SDS011;4334;49.982;8.398;2022-07-10T10:39:12;2.53;;;1.20;;
8592;SDS011;4334;49.982;8.398;2022-07-10T10:41:42;2.95;;;1.23;;
8592;SDS011;4334;49.982;8.398;2022-07-10T10:44:25;3.53;;;1.40;;
8592;SDS011;4334;49.982;8.398;2022-07-10T10:47:01;3.03;;;1.40;;
8592;SDS011;4334;49.982;8.398;2022-07-10T10:49:50;1.35;;;1.05;;
8592;SDS011;4334;49.982;8.398;2022-07-10T10:52:19;2.58;;;1.27;;
8592;SDS011;4334;49.982;8.398;2022-07-10T10:54:59;2.58;;;1.20;;
8592;SDS011;4334;49.982;8.398;2022-07-10T10:57:36;3.17;;;1.40;;
8592;SDS011;4334;49.982;8.398;2022-07-10T11:00:05;1.90;;;1.40;;
8592;SDS011;4334;49.982;8.398;2022-07-10T11:02:35;1.92;;;1.20;;
8592;SDS011;4334;49.982;8.398;2022-07-10T11:08:11;2.47;;;1.20;;
8592;SDS011;4334;49.982;8.398;2022-07-10T11:10:39;4.25;;;1.30;;
8592;SDS011;4334;49.982;8.398;2022-07-10T11:13:07;3.83;;;1.52;;
8592;SDS011;4334;49.982;8.398;2022-07-10T11:15:35;3.63;;;1.55;;
8592;SDS011;4334;49.982;8.398;2022-07-10T11:18:05;2.75;;;1.38;;
8592;SDS011;4334;49.982;8.398;2022-07-10T11:20:33;3.38;;;1.30;;
8592;SDS011;4334;49.982;8.398;2022-07-10T11:23:06;1.80;;;1.20;;
8592;SDS011;4334;49.982;8.398;2022-07-10T11:25:45;3.60;;;1.30;;
8592;SDS011;4334;49.982;8.398;2022-07-10T11:28:27;1.98;;;1.30;;
8592;SDS011;4334;49.982;8.398;2022-07-10T11:31:01;2.58;;;1.30;;
8592;SDS011;4334;49.982;8.398;2022-07-10T11:33:30;2.97;;;1.40;;
8592;SDS011;4334;49.982;8.398;2022-07-10T11:36:09;1.48;;;1.17;;
8592;SDS011;4334;49.982;8.398;2022-07-10T11:38:38;2.72;;;1.30;;
8592;SDS011;4334;49.982;8.398;2022-07-10T11:41:11;3.55;;;1.10;;
8592;SDS011;4334;49.982;8.398;2022-07-10T11:43:45;1.50;;;1.00;;
8592;SDS011;4334;49.982;8.398;2022-07-10T11:46:12;2.03;;;1.17;;
8592;SDS011;4334;49.982;8.398;2022-07-10T11:48:41;1.83;;;1.13;;
8592;SDS011;4334;49.982;8.398;2022-07-10T11:53:57;2.72;;;1.30;;
8592;SDS011;4334;49.982;8.398;2022-07-10T11:56:26;4.50;;;1.30;;
8592;SDS011;4334;49.982;8.398;2022-07-10T11:58:54;3.00;;;1.60;;
8592;SDS011;4334;49.982;8.398;2022-07-10T12:01:21;6.70;;;1.40;;
8592;SDS011;4334;49.982;8.398;2022-07-10T12:03:56;5.22;;;2.65;;
8592;SDS011;4334;49.982;8.398;2022-07-10T12:06:25;3.70;;;1.35;;
8592;SDS011;4334;49.982;8.398;2022-07-10T12:08:53;2.42;;;1.00;;
8592;SDS011;4334;49.982;8.398;2022-07-10T12:11:20;4.43;;;1.23;;
8592;SDS011;4334;49.982;8.398;2022-07-10T12:13:48;1.88;;;1.17;;
8592;SDS011;4334;49.982;8.398;2022-07-10T12:16:16;2.50;;;1.10;;
8592;SDS011;4334;49.982;8.398;2022-07-10T12:18:44;1.85;;;1.02;;
8592;SDS011;4334;49.982;8.398;2022-07-10T12:21:13;1.17;;;1.02;;
8592;SDS011;4334;49.982;8.398;2022-07-10T12:23:40;2.15;;;1.08;;
8592;SDS011;4334;49.982;8.398;2022-07-10T12:26:10;2.80;;;1.00;;
8592;SDS011;4334;49.982;8.398;2022-07-10T12:28:47;1.83;;;0.98;;
8592;SDS011;4334;49.982;8.398;2022-07-10T12:31:19;2.42;;;1.20;;
8592;SDS011;4334;49.982;8.398;2022-07-10T12:33:50;2.78;;;1.23;;
8592;SDS011;4334;49.982;8.398;2022-07-10T12:36:21;2.05;;;1.10;;
8592;SDS011;4334;49.982;8.398;2022-07-10T12:38:55;2.50;;;1.05;;
8592;SDS011;4334;49.982;8.398;2022-07-10T12:41:23;2.97;;;1.27;;
8592;SDS011;4334;49.982;8.398;2022-07-10T12:43:50;2.22;;;1.10;;
8592;SDS011;4334;49.982;8.398;2022-07-10T12:46:18;2.55;;;1.20;;
8592;SDS011;4334;49.982;8.398;2022-07-10T12:49:02;1.83;;;1.20;;
8592;SDS011;4334;49.982;8.398;2022-07-10T12:51:34;3.22;;;1.30;;
8592;SDS011;4334;49.982;8.398;2022-07-10T12:56:56;2.20;;;1.20;;
8592;SDS011;4334;49.982;8.398;2022-07-10T12:59:24;1.45;;;0.95;;
8592;SDS011;4334;49.982;8.398;2022-07-10T13:01:51;1.60;;;1.10;;
8592;SDS011;4334;49.982;8.398;2022-07-10T13:04:22;2.03;;;1.05;;
8592;SDS011;4334;49.982;8.398;2022-07-10T13:06:50;2.30;;;0.95;;
8592;SDS011;4334;49.982;8.398;2022-07-10T13:09:17;1.20;;;1.02;;
8592;SDS011;4334;49.982;8.398;2022-07-10T13:11:45;3.47;;;1.30;;
8592;SDS011;4334;49.982;8.398;2022-07-10T13:14:12;2.42;;;0.90;;
8592;SDS011;4334;49.982;8.398;2022-07-10T13:16:39;1.60;;;0.88;;
8592;SDS011;4334;49.982;8.398;2022-07-10T13:19:05;1.13;;;0.93;;
8592;SDS011;4334;49.982;8.398;2022-07-10T13:21:32;1.83;;;0.82;;
8592;SDS011;4334;49.982;8.398;2022-07-10T13:24:00;1.83;;;0.90;;
8592;SDS011;4334;49.982;8.398;2022-07-10T13:26:28;2.00;;;0.77;;
8592;SDS011;4334;49.982;8.398;2022-07-10T13:28:55;1.38;;;0.90;;
8592;SDS011;4334;49.982;8.398;2022-07-10T13:31:22;2.25;;;0.93;;
8592;SDS011;4334;49.982;8.398;2022-07-10T13:33:49;2.55;;;0.70;;
8592;SDS011;4334;49.982;8.398;2022-07-10T13:36:16;1.00;;;0.88;;
8592;SDS011;4334;49.982;8.398;2022-07-10T13:38:42;1.38;;;0.80;;
8592;SDS011;4334;49.982;8.398;2022-07-10T13:41:13;1.13;;;0.63;;
8592;SDS011;4334;49.982;8.398;2022-07-10T13:43:40;9.13;;;1.00;;
8592;SDS011;4334;49.982;8.398;2022-07-10T13:46:06;1.00;;;0.90;;
8592;SDS011;4334;49.982;8.398;2022-07-10T13:48:33;2.08;;;1.00;;
8592;SDS011;4334;49.982;8.398;2022-07-10T13:51:00;0.85;;;0.63;;
8592;SDS011;4334;49.982;8.398;2022-07-10T13:53:27;1.23;;;0.63;;
8592;SDS011;4334;49.982;8.398;2022-07-10T13:55:53;0.82;;;0.80;;
8592;SDS011;4334;49.982;8.398;2022-07-10T13:58:21;1.35;;;0.77;;
8592;SDS011;4334;49.982;8.398;2022-07-10T14:00:48;0.63;;;0.57;;
8592;SDS011;4334;49.982;8.398;2022-07-10T14:03:15;1.73;;;0.65;;
8592;SDS011;4334;49.982;8.398;2022-07-10T14:05:41;2.47;;;0.80;;
8592;SDS011;4334;49.982;8.398;2022-07-10T14:08:08;0.68;;;0.63;;
8592;SDS011;4334;49.982;8.398;2022-07-10T14:10:35;1.10;;;0.68;;
8592;SDS011;4334;49.982;8.398;2022-07-10T14:13:02;1.00;;;0.75;;
8592;SDS011;4334;49.982;8.398;2022-07-10T14:15:31;2.78;;;1.02;;
8592;SDS011;4334;49.982;8.398;2022-07-10T14:17:58;1.65;;;0.75;;
8592;SDS011;4334;49.982;8.398;2022-07-10T14:20:24;1.67;;;0.90;;
8592;SDS011;4334;49.982;8.398;2022-07-10T14:22:52;1.02;;;0.77;;
8592;SDS011;4334;49.982;8.398;2022-07-10T14:25:19;2.10;;;1.05;;
8592;SDS011;4334;49.982;8.398;2022-07-10T14:27:51;1.48;;;0.90;;
8592;SDS011;4334;49.982;8.398;2022-07-10T14:30:17;2.03;;;1.20;;
8592;SDS011;4334;49.982;8.398;2022-07-10T14:32:45;1.58;;;0.77;;
8592;SDS011;4334;49.982;8.398;2022-07-10T14:35:12;3.42;;;1.20;;
8592;SDS011;4334;49.982;8.398;2022-07-10T14:37:39;1.90;;;1.20;;
8592;SDS011;4334;49.982;8.398;2022-07-10T14:40:06;2.92;;;1.23;;
8592;SDS011;4334;49.982;8.398;2022-07-10T14:42:33;1.55;;;1.02;;
8592;SDS011;4334;49.982;8.398;2022-07-10T14:45:00;1.88;;;1.10;;
8592;SDS011;4334;49.982;8.398;2022-07-10T14:47:27;1.58;;;1.00;;
8592;SDS011;4334;49.982;8.398;2022-07-10T14:49:56;2.08;;;1.10;;
8592;SDS011;4334;49.982;8.398;2022-07-10T14:52:23;2.13;;;1.00;;
8592;SDS011;4334;49.982;8.398;2022-07-10T14:54:52;0.80;;;0.80;;
8592;SDS011;4334;49.982;8.398;2022-07-10T14:57:19;1.73;;;1.00;;
8592;SDS011;4334;49.982;8.398;2022-07-10T14:59:45;2.17;;;1.00;;
8592;SDS011;4334;49.982;8.398;2022-07-10T15:02:12;1.88;;;1.02;;
8592;SDS011;4334;49.982;8.398;2022-07-10T15:04:39;1.65;;;0.90;;
8592;SDS011;4334;49.982;8.398;2022-07-10T15:07:07;3.08;;;1.00;;
8592;SDS011;4334;49.982;8.398;2022-07-10T15:09:34;2.30;;;1.08;;
8592;SDS011;4334;49.982;8.398;2022-07-10T15:12:01;1.02;;;0.90;;
8592;SDS011;4334;49.982;8.398;2022-07-10T15:14:27;1.65;;;1.00;;
8592;SDS011;4334;49.982;8.398;2022-07-10T15:16:54;2.58;;;0.93;;
8592;SDS011;4334;49.982;8.398;2022-07-10T15:19:21;1.20;;;0.90;;
8592;SDS011;4334;49.982;8.398;2022-07-10T15:21:48;3.08;;;1.05;;
8592;SDS011;4334;49.982;8.398;2022-07-10T15:24:16;0.77;;;0.77;;
8592;SDS011;4334;49.982;8.398;2022-07-10T15:26:43;0.95;;;0.90;;
8592;SDS011;4334;49.982;8.398;2022-07-10T15:29:09;1.13;;;0.95;;
8592;SDS011;4334;49.982;8.398;2022-07-10T15:31:36;0.73;;;0.70;;